createdAt,value
2019-05-22T00:00:29.644Z,12.63
2019-05-22T00:01:29.683Z,12.62
2019-05-22T00:02:29.740Z,12.74
2019-05-22T00:03:29.793Z,12.61
2019-05-22T00:04:29.850Z,12.71
2019-05-22T00:05:29.907Z,12.58
2019-05-22T00:06:29.964Z,12.61
2019-05-22T00:07:30.069Z,12.59
2019-05-22T00:08:30.130Z,12.59
2019-05-22T00:09:30.132Z,12.74
2019-05-22T00:10:30.191Z,12.74
2019-05-22T00:11:30.249Z,12.69
2019-05-22T00:12:44.284Z,12.63
2019-05-22T00:13:30.355Z,12.61
2019-05-22T00:14:30.443Z,12.63
2019-05-22T00:15:30.906Z,12.73
2019-05-22T00:16:30.523Z,12.76
2019-05-22T00:17:30.581Z,12.66
2019-05-22T00:18:30.640Z,12.62
2019-05-22T00:19:30.695Z,12.63
2019-05-22T00:20:30.747Z,12.66
2019-05-22T00:21:30.827Z,12.67
2019-05-22T00:22:30.864Z,12.73
2019-05-22T00:23:30.916Z,12.66
2019-05-22T00:24:30.973Z,12.62
2019-05-22T00:25:33.199Z,12.67
2019-05-22T00:26:31.086Z,12.62
2019-05-22T00:27:31.141Z,12.56
2019-05-22T00:28:31.230Z,12.61
2019-05-22T00:29:31.255Z,12.59
2019-05-22T00:30:31.309Z,12.58
2019-05-22T00:31:31.365Z,12.59
2019-05-22T00:32:31.421Z,12.74
2019-05-22T00:33:31.478Z,12.70
2019-05-22T00:34:31.535Z,12.62
2019-05-22T00:35:31.590Z,12.73
2019-05-22T00:36:31.646Z,12.71
2019-05-22T00:37:31.703Z,12.67
2019-05-22T00:38:31.802Z,12.63
2019-05-22T00:39:31.813Z,12.74
2019-05-22T00:40:31.869Z,12.76
2019-05-22T00:41:31.926Z,12.62
2019-05-22T00:42:31.982Z,12.62
2019-05-22T00:43:32.041Z,12.77
2019-05-22T00:44:32.095Z,12.59
2019-05-22T00:45:32.152Z,12.55
2019-05-22T00:46:32.206Z,12.61
2019-05-22T00:47:32.262Z,12.52
2019-05-22T00:48:32.319Z,12.43
2019-05-22T00:49:32.374Z,12.44
2019-05-22T00:50:32.466Z,12.44
2019-05-22T00:51:32.497Z,12.43
2019-05-22T00:52:32.544Z,12.34
2019-05-22T00:53:32.603Z,12.33
2019-05-22T00:54:32.656Z,12.33
2019-05-22T00:55:32.712Z,12.33
2019-05-22T00:56:32.766Z,12.37
2019-05-22T00:57:32.822Z,12.29
2019-05-22T00:58:32.880Z,12.31
2019-05-22T00:59:32.936Z,12.40
2019-05-22T01:00:34.888Z,12.37
2019-05-22T01:01:33.048Z,12.44
2019-05-22T01:02:33.103Z,12.51
2019-05-22T01:03:33.159Z,12.43
2019-05-22T01:04:33.214Z,12.30
2019-05-22T01:05:33.286Z,12.38
2019-05-22T01:06:33.327Z,12.38
2019-05-22T01:07:33.382Z,12.33
2019-05-22T01:08:33.438Z,12.34
2019-05-22T01:09:33.495Z,12.31
2019-05-22T01:10:33.549Z,12.36
2019-05-22T01:11:33.605Z,12.23
2019-05-22T01:12:33.664Z,12.26
2019-05-22T01:13:33.718Z,12.30
2019-05-22T01:14:42.664Z,12.29
2019-05-22T01:15:33.828Z,12.19
2019-05-22T01:16:33.891Z,12.26
2019-05-22T01:17:33.942Z,12.22
2019-05-22T01:18:33.997Z,12.21
2019-05-22T01:19:34.055Z,12.22
2019-05-22T01:20:34.109Z,12.21
2019-05-22T01:21:34.164Z,12.31
2019-05-22T01:22:34.222Z,12.29
2019-05-22T01:23:34.276Z,12.33
2019-05-22T01:24:34.332Z,12.31
2019-05-22T01:25:34.389Z,12.41
2019-05-22T01:26:34.444Z,12.43
2019-05-22T01:27:34.508Z,12.44
2019-05-22T01:28:34.554Z,12.43
2019-05-22T01:29:34.610Z,12.34
2019-05-22T01:30:34.667Z,12.29
2019-05-22T01:31:34.720Z,12.30
2019-05-22T01:32:34.779Z,12.30
2019-05-22T01:33:34.835Z,12.34
2019-05-22T01:34:34.889Z,12.25
2019-05-22T01:35:34.947Z,12.26
2019-05-22T01:36:35.002Z,12.34
2019-05-22T01:37:35.057Z,12.33
2019-05-22T01:38:35.117Z,12.43
2019-05-22T01:39:35.177Z,12.43
2019-05-22T01:40:35.224Z,12.44
2019-05-22T01:41:35.286Z,12.40
2019-05-22T01:42:36.189Z,12.31
2019-05-22T01:43:35.393Z,12.33
2019-05-22T01:44:35.449Z,12.38
2019-05-22T01:45:35.504Z,12.29
2019-05-22T01:46:35.563Z,12.36
2019-05-22T01:47:35.617Z,12.34
2019-05-22T01:48:35.675Z,12.33
2019-05-22T01:49:35.743Z,12.33
2019-05-22T01:50:35.787Z,12.36
2019-05-22T01:51:35.841Z,12.33
2019-05-22T01:52:35.903Z,12.30
2019-05-22T01:53:35.953Z,12.48
2019-05-22T01:54:36.010Z,12.36
2019-05-22T01:55:36.065Z,12.29
2019-05-22T01:56:36.122Z,12.34
2019-05-22T01:57:36.179Z,12.25
2019-05-22T01:58:36.238Z,12.25
2019-05-22T01:59:36.289Z,12.29
2019-05-22T02:00:36.347Z,12.26
2019-05-22T02:01:36.402Z,12.22
2019-05-22T02:02:36.458Z,12.19
2019-05-22T02:03:36.516Z,12.08
2019-05-22T02:04:36.570Z,12.15
2019-05-22T02:05:36.626Z,12.08
2019-05-22T02:06:36.693Z,12.08
2019-05-22T02:07:36.738Z,12.12
2019-05-22T02:08:36.794Z,12.19
2019-05-22T02:09:36.851Z,12.18
2019-05-22T02:10:36.907Z,12.22
2019-05-22T02:11:36.963Z,12.30
2019-05-22T02:12:37.017Z,12.30
2019-05-22T02:13:37.087Z,12.33
2019-05-22T02:14:37.131Z,12.33
2019-05-22T02:15:37.185Z,12.29
2019-05-22T02:16:37.242Z,12.31
2019-05-22T02:17:37.307Z,12.31
2019-05-22T02:18:37.354Z,12.23
2019-05-22T02:19:37.408Z,12.22
2019-05-22T02:20:37.466Z,12.19
2019-05-22T02:21:37.532Z,12.29
2019-05-22T02:22:37.590Z,12.25
2019-05-22T02:23:37.636Z,12.13
2019-05-22T02:24:37.689Z,12.22
2019-05-22T02:25:37.746Z,12.18
2019-05-22T02:26:37.801Z,12.16
2019-05-22T02:27:37.857Z,12.16
2019-05-22T02:28:37.915Z,12.13
2019-05-22T02:29:37.975Z,12.22
2019-05-22T02:30:38.026Z,12.16
2019-05-22T02:31:38.081Z,12.18
2019-05-22T02:32:38.138Z,12.18
2019-05-22T02:33:38.343Z,12.22
2019-05-22T02:34:38.250Z,12.19
2019-05-22T02:35:38.304Z,12.21
2019-05-22T02:36:38.370Z,12.19
2019-05-22T02:37:38.415Z,12.30
2019-05-22T02:38:38.477Z,12.31
2019-05-22T02:39:38.529Z,12.31
2019-05-22T02:40:38.588Z,12.34
2019-05-22T02:41:38.640Z,12.36
2019-05-22T02:42:38.696Z,12.30
2019-05-22T02:43:38.751Z,12.31
2019-05-22T02:44:38.810Z,12.33
2019-05-22T02:45:38.870Z,12.34
2019-05-22T02:46:38.920Z,12.33
2019-05-22T02:47:39.033Z,12.36
2019-05-22T02:48:42.246Z,12.30
2019-05-22T02:49:39.089Z,12.33
2019-05-22T02:50:39.147Z,12.38
2019-05-22T02:51:39.199Z,12.31
2019-05-22T02:52:39.261Z,12.34
2019-05-22T02:53:39.312Z,12.21
2019-05-22T02:54:39.366Z,12.22
2019-05-22T02:55:39.420Z,12.26
2019-05-22T02:56:39.476Z,12.22
2019-05-22T02:57:39.537Z,12.22
2019-05-22T02:58:39.590Z,12.26
2019-05-22T02:59:39.643Z,12.07
2019-05-22T03:00:39.718Z,12.13
2019-05-22T03:01:39.755Z,12.13
2019-05-22T03:02:39.812Z,12.25
2019-05-22T03:03:39.867Z,12.19
2019-05-22T03:04:39.924Z,12.13
2019-05-22T03:05:39.979Z,12.12
2019-05-22T03:06:40.035Z,12.08
2019-05-22T03:07:40.092Z,12.03
2019-05-22T03:08:40.146Z,12.16
2019-05-22T03:09:40.207Z,12.11
2019-05-22T03:10:40.257Z,12.03
2019-05-22T03:11:40.314Z,12.07
2019-05-22T03:12:40.376Z,12.08
2019-05-22T03:13:40.425Z,12.12
2019-05-22T03:14:40.480Z,12.05
2019-05-22T03:15:40.537Z,12.13
2019-05-22T03:16:40.608Z,12.16
2019-05-22T03:17:40.652Z,12.22
2019-05-22T03:18:40.703Z,12.25
2019-05-22T03:19:40.759Z,12.21
2019-05-22T03:20:40.818Z,12.29
2019-05-22T03:21:40.870Z,12.30
2019-05-22T03:22:40.940Z,12.29
2019-05-22T03:23:40.984Z,12.13
2019-05-22T03:24:41.040Z,12.25
2019-05-22T03:25:41.115Z,12.18
2019-05-22T03:26:41.151Z,12.21
2019-05-22T03:27:41.206Z,12.16
2019-05-22T03:28:41.263Z,12.11
2019-05-22T03:29:41.317Z,12.05
2019-05-22T03:30:41.374Z,12.03
2019-05-22T03:31:41.430Z,12.13
2019-05-22T03:32:43.604Z,12.13
2019-05-22T03:33:41.577Z,12.13
2019-05-22T03:34:41.616Z,12.15
2019-05-22T03:35:42.074Z,12.16
2019-05-22T03:36:41.709Z,12.01
2019-05-22T03:37:41.779Z,12.00
2019-05-22T03:38:41.830Z,12.00
2019-05-22T03:39:41.876Z,12.03
2019-05-22T03:40:41.931Z,12.03
2019-05-22T03:41:41.988Z,12.13
2019-05-22T03:42:42.050Z,12.11
2019-05-22T03:43:42.097Z,12.13
2019-05-22T03:44:42.155Z,12.11
2019-05-22T03:45:42.212Z,12.05
2019-05-22T03:46:42.266Z,12.11
2019-05-22T03:47:42.324Z,12.18
2019-05-22T03:48:42.376Z,12.15
2019-05-22T03:49:42.432Z,12.13
2019-05-22T03:50:42.490Z,12.11
2019-05-22T03:51:42.556Z,12.13
2019-05-22T03:52:42.598Z,12.19
2019-05-22T03:53:42.654Z,12.15
2019-05-22T03:54:42.711Z,12.19
2019-05-22T03:55:42.766Z,12.22
2019-05-22T03:56:42.823Z,12.22
2019-05-22T03:57:42.877Z,12.19
2019-05-22T03:58:42.937Z,12.25
2019-05-22T03:59:42.992Z,12.15
2019-05-22T04:00:43.772Z,12.13
2019-05-22T04:01:43.135Z,12.15
2019-05-22T04:02:43.197Z,12.15
2019-05-22T04:03:43.214Z,12.12
2019-05-22T04:04:43.269Z,12.21
2019-05-22T04:05:43.328Z,12.21
2019-05-22T04:06:43.384Z,12.30
2019-05-22T04:07:43.437Z,12.25
2019-05-22T04:08:43.493Z,12.30
2019-05-22T04:09:43.549Z,12.29
2019-05-22T04:10:43.625Z,12.30
2019-05-22T04:11:43.660Z,12.34
2019-05-22T04:12:43.715Z,12.31
2019-05-22T04:13:43.776Z,12.33
2019-05-22T04:14:43.830Z,12.26
2019-05-22T04:15:43.902Z,12.37
2019-05-22T04:16:43.944Z,12.25
2019-05-22T04:17:43.996Z,12.18
2019-05-22T04:18:44.053Z,12.23
2019-05-22T04:19:50.163Z,12.33
2019-05-22T04:20:44.165Z,12.36
2019-05-22T04:21:44.219Z,12.34
2019-05-22T04:22:44.332Z,12.36
2019-05-22T04:23:44.332Z,12.43
2019-05-22T04:24:44.388Z,12.44
2019-05-22T04:25:44.449Z,12.46
2019-05-22T04:26:44.500Z,12.48
2019-05-22T04:27:44.557Z,12.44
2019-05-22T04:28:44.612Z,12.56
2019-05-22T04:29:44.669Z,12.52
2019-05-22T04:30:45.080Z,12.51
2019-05-22T04:31:44.782Z,12.59
2019-05-22T04:32:44.843Z,12.44
2019-05-22T04:33:44.894Z,12.48
2019-05-22T04:34:44.948Z,12.37
2019-05-22T04:35:45.004Z,12.38
2019-05-22T04:36:45.060Z,12.41
2019-05-22T04:37:45.804Z,12.44
2019-05-22T04:38:45.687Z,12.46
2019-05-22T04:39:45.722Z,12.44
2019-05-22T04:40:45.285Z,12.37
2019-05-22T04:41:45.341Z,12.46
2019-05-22T04:42:45.405Z,12.44
2019-05-22T04:43:45.455Z,12.41
2019-05-22T04:44:45.511Z,12.44
2019-05-22T04:45:45.567Z,12.48
2019-05-22T04:46:45.623Z,12.54
2019-05-22T04:47:45.681Z,12.49
2019-05-22T04:48:46.589Z,12.49
2019-05-22T04:49:45.790Z,12.54
2019-05-22T04:50:45.847Z,12.59
2019-05-22T04:51:45.902Z,12.62
2019-05-22T04:52:45.971Z,12.63
2019-05-22T04:53:46.014Z,12.55
2019-05-22T04:54:46.072Z,12.58
2019-05-22T04:55:46.132Z,12.58
2019-05-22T04:56:46.183Z,12.54
2019-05-22T04:57:46.241Z,12.56
2019-05-22T04:58:46.300Z,12.54
2019-05-22T04:59:46.351Z,12.51
2019-05-22T05:00:46.411Z,12.49
2019-05-22T05:01:46.465Z,12.54
2019-05-22T05:02:46.523Z,12.61
2019-05-22T05:03:46.586Z,12.58
2019-05-22T05:04:46.633Z,12.70
2019-05-22T05:05:46.689Z,12.59
2019-05-22T05:06:46.746Z,12.55
2019-05-22T05:07:46.799Z,12.59
2019-05-22T05:08:46.859Z,12.61
2019-05-22T05:09:46.929Z,12.52
2019-05-22T05:10:46.969Z,12.56
2019-05-22T05:11:47.026Z,12.56
2019-05-22T05:12:47.081Z,12.66
2019-05-22T05:13:47.194Z,12.76
2019-05-22T05:14:47.195Z,12.70
2019-05-22T05:15:47.261Z,12.74
2019-05-22T05:16:47.322Z,12.70
2019-05-22T05:17:47.426Z,12.77
2019-05-22T05:18:47.494Z,12.79
2019-05-22T05:19:47.510Z,12.74
2019-05-22T05:20:47.536Z,12.66
2019-05-22T05:21:47.589Z,12.69
2019-05-22T05:22:47.647Z,12.69
2019-05-22T05:23:47.703Z,12.74
2019-05-22T05:24:47.764Z,12.74
2019-05-22T05:25:47.815Z,12.73
2019-05-22T05:26:47.874Z,12.71
2019-05-22T05:27:47.928Z,12.67
2019-05-22T05:28:47.984Z,12.76
2019-05-22T05:29:48.040Z,12.76
2019-05-22T05:30:48.097Z,12.74
2019-05-22T05:31:48.153Z,12.84
2019-05-22T05:32:48.210Z,12.88
2019-05-22T05:33:48.271Z,12.70
2019-05-22T05:34:48.343Z,12.71
2019-05-22T05:35:48.379Z,12.77
2019-05-22T05:36:48.436Z,12.73
2019-05-22T05:37:48.494Z,12.74
2019-05-22T05:38:48.548Z,12.70
2019-05-22T05:39:48.604Z,12.80
2019-05-22T05:40:48.682Z,12.79
2019-05-22T05:41:48.754Z,12.85
2019-05-22T05:42:48.880Z,12.95
2019-05-22T05:43:48.831Z,12.98
2019-05-22T05:44:48.897Z,12.99
2019-05-22T05:45:48.946Z,12.96
2019-05-22T05:46:49.000Z,12.95
2019-05-22T05:47:49.056Z,12.85
2019-05-22T05:48:49.112Z,12.88
2019-05-22T05:49:49.175Z,12.98
2019-05-22T05:50:49.227Z,13.01
2019-05-22T05:51:49.283Z,12.94
2019-05-22T05:52:49.347Z,12.91
2019-05-22T05:53:49.396Z,12.89
2019-05-22T05:54:49.452Z,13.10
2019-05-22T05:55:49.511Z,13.10
2019-05-22T05:56:49.566Z,13.14
2019-05-22T05:57:49.624Z,13.25
2019-05-22T05:58:49.683Z,13.19
2019-05-22T05:59:49.735Z,13.24
2019-05-22T06:00:50.195Z,13.24
2019-05-22T06:01:49.850Z,13.19
2019-05-22T06:02:56.518Z,13.29
2019-05-22T06:03:49.961Z,13.38
2019-05-22T06:04:50.039Z,13.53
2019-05-22T06:05:50.075Z,13.55
2019-05-22T06:06:50.135Z,13.63
2019-05-22T06:07:50.208Z,13.41
2019-05-22T06:08:50.245Z,13.53
2019-05-22T06:09:50.303Z,13.43
2019-05-22T06:10:50.359Z,13.57
2019-05-22T06:11:50.415Z,13.57
2019-05-22T06:12:50.480Z,13.55
2019-05-22T06:13:50.530Z,13.62
2019-05-22T06:14:50.588Z,13.57
2019-05-22T06:15:50.665Z,13.62
2019-05-22T06:16:50.717Z,13.62
2019-05-22T06:17:50.758Z,13.57
2019-05-22T06:18:50.816Z,13.54
2019-05-22T06:19:50.873Z,13.53
2019-05-22T06:21:03.429Z,13.43
2019-05-22T06:21:50.985Z,13.35
2019-05-22T06:22:51.051Z,13.48
2019-05-22T06:23:51.100Z,13.47
2019-05-22T06:24:51.158Z,13.53
2019-05-22T06:25:51.215Z,13.55
2019-05-22T06:26:51.975Z,13.59
2019-05-22T06:27:51.327Z,13.71
2019-05-22T06:28:51.383Z,13.71
2019-05-22T06:29:51.442Z,13.69
2019-05-22T06:30:51.498Z,13.76
2019-05-22T06:31:51.554Z,13.68
2019-05-22T06:32:51.613Z,13.81
2019-05-22T06:33:51.670Z,13.81
2019-05-22T06:34:51.727Z,13.81
2019-05-22T06:35:51.786Z,13.73
2019-05-22T06:36:51.841Z,13.66
2019-05-22T06:37:51.900Z,13.62
2019-05-22T06:38:51.957Z,13.53
2019-05-22T06:39:52.011Z,13.59
2019-05-22T06:40:52.089Z,13.54
2019-05-22T06:41:52.157Z,13.54
2019-05-22T06:42:52.189Z,13.55
2019-05-22T06:43:52.240Z,13.59
2019-05-22T06:44:52.298Z,13.57
2019-05-22T06:45:52.356Z,13.53
2019-05-22T06:46:52.421Z,13.41
2019-05-22T06:47:52.468Z,13.54
2019-05-22T06:48:53.076Z,13.48
2019-05-22T06:49:52.584Z,13.55
2019-05-22T06:50:52.641Z,13.59
2019-05-22T06:51:52.795Z,13.61
2019-05-22T06:53:08.692Z,13.72
2019-05-22T06:53:52.812Z,13.71
2019-05-22T06:54:52.969Z,13.68
2019-05-22T06:55:52.927Z,13.66
2019-05-22T06:56:52.986Z,13.76
2019-05-22T06:57:53.041Z,13.66
2019-05-22T06:58:53.111Z,13.76
2019-05-22T07:00:11.605Z,13.75
2019-05-22T07:00:53.214Z,13.73
2019-05-22T07:02:01.058Z,13.72
2019-05-22T07:02:53.328Z,13.75
2019-05-22T07:03:53.392Z,13.62
2019-05-22T07:04:53.444Z,13.44
2019-05-22T07:05:53.500Z,13.27
2019-05-22T07:06:53.560Z,13.31
2019-05-22T07:07:53.614Z,13.25
2019-05-22T07:08:53.672Z,13.35
2019-05-22T07:09:53.729Z,13.36
2019-05-22T07:10:53.787Z,13.44
2019-05-22T07:11:53.845Z,13.39
2019-05-22T07:12:54.414Z,13.36
2019-05-22T07:13:53.960Z,13.27
2019-05-22T07:14:54.019Z,13.32
2019-05-22T07:15:54.078Z,13.29
2019-05-22T07:16:54.131Z,13.25
2019-05-22T07:17:54.187Z,13.24
2019-05-22T07:18:54.245Z,13.25
2019-05-22T07:19:54.344Z,13.38
2019-05-22T07:20:54.360Z,13.39
2019-05-22T07:21:54.417Z,13.50
2019-05-22T07:22:54.492Z,13.41
2019-05-22T07:23:54.532Z,13.28
2019-05-22T07:24:54.589Z,13.46
2019-05-22T07:25:54.651Z,13.48
2019-05-22T07:26:54.703Z,13.59
2019-05-22T07:27:54.760Z,13.55
2019-05-22T07:28:54.818Z,13.38
2019-05-22T07:29:54.875Z,13.59
2019-05-22T07:30:54.934Z,13.63
2019-05-22T07:31:55.511Z,13.65
2019-05-22T07:32:55.055Z,13.66
2019-05-22T07:33:55.107Z,13.81
2019-05-22T07:34:55.173Z,13.86
2019-05-22T07:36:13.558Z,13.76
2019-05-22T07:36:55.278Z,13.98
2019-05-22T07:37:55.337Z,14.09
2019-05-22T07:38:55.398Z,14.17
2019-05-22T07:39:55.451Z,14.16
2019-05-22T07:40:55.588Z,14.05
2019-05-22T07:41:55.568Z,13.86
2019-05-22T07:42:55.984Z,13.98
2019-05-22T07:43:55.683Z,13.86
2019-05-22T07:44:55.797Z,13.99
2019-05-22T07:45:55.986Z,14.11
2019-05-22T07:46:55.859Z,14.23
2019-05-22T07:47:55.916Z,14.24
2019-05-22T07:48:55.976Z,14.24
2019-05-22T07:49:56.039Z,14.11
2019-05-22T07:50:56.095Z,14.09
2019-05-22T07:52:01.271Z,14.05
2019-05-22T07:52:56.210Z,14.09
2019-05-22T07:53:56.268Z,14.08
2019-05-22T07:54:56.328Z,14.17
2019-05-22T07:55:56.387Z,14.26
2019-05-22T07:56:56.442Z,14.17
2019-05-22T07:57:56.500Z,14.16
2019-05-22T07:58:58.933Z,14.20
2019-05-22T07:59:56.621Z,14.26
2019-05-22T08:00:56.695Z,14.24
2019-05-22T08:01:56.735Z,14.19
2019-05-22T08:02:56.794Z,14.21
2019-05-22T08:03:56.851Z,14.20
2019-05-22T08:04:56.914Z,14.13
2019-05-22T08:05:56.967Z,14.01
2019-05-22T08:06:57.027Z,13.98
2019-05-22T08:07:57.090Z,13.94
2019-05-22T08:08:57.146Z,13.99
2019-05-22T08:09:57.202Z,14.09
2019-05-22T08:10:57.261Z,13.86
2019-05-22T08:11:57.319Z,14.02
2019-05-22T08:12:57.376Z,14.19
2019-05-22T08:13:57.436Z,14.09
2019-05-22T08:14:57.494Z,14.09
2019-05-22T08:15:57.553Z,13.99
2019-05-22T08:16:57.610Z,13.90
2019-05-22T08:17:57.669Z,13.88
2019-05-22T08:18:57.730Z,13.96
2019-05-22T08:19:57.787Z,13.99
2019-05-22T08:20:57.860Z,14.02
2019-05-22T08:22:06.652Z,14.26
2019-05-22T08:22:58.636Z,14.29
2019-05-22T08:23:58.025Z,14.36
2019-05-22T08:24:58.115Z,14.20
2019-05-22T08:25:58.337Z,14.20
2019-05-22T08:26:58.824Z,14.24
2019-05-22T08:27:58.254Z,14.29
2019-05-22T08:28:58.312Z,14.52
2019-05-22T08:29:58.378Z,14.56
2019-05-22T08:30:58.431Z,14.63
2019-05-22T08:31:58.492Z,14.61
2019-05-22T08:32:58.547Z,14.54
2019-05-22T08:33:58.614Z,14.57
2019-05-22T08:34:58.670Z,14.59
2019-05-22T08:35:58.937Z,14.59
2019-05-22T08:36:58.786Z,14.75
2019-05-22T08:37:58.895Z,14.95
2019-05-22T08:38:58.907Z,14.94
2019-05-22T08:39:58.960Z,15.15
2019-05-22T08:40:59.040Z,15.33
2019-05-22T08:41:59.175Z,15.37
2019-05-22T08:42:59.143Z,15.11
2019-05-22T08:44:15.481Z,14.66
2019-05-22T08:44:59.256Z,14.64
2019-05-22T08:45:59.318Z,14.94
2019-05-22T08:46:59.377Z,15.04
2019-05-22T08:47:59.491Z,15.09
2019-05-22T08:48:59.494Z,15.46
2019-05-22T08:49:59.572Z,15.49
2019-05-22T08:50:59.613Z,15.55
2019-05-22T08:51:59.743Z,15.76
2019-05-22T08:52:59.733Z,15.68
2019-05-22T08:53:59.793Z,15.80
2019-05-22T08:54:59.858Z,15.98
2019-05-22T08:55:59.915Z,15.88
2019-05-22T08:56:59.982Z,15.93
2019-05-22T08:58:00.034Z,16.18
2019-05-22T08:59:18.096Z,16.08
2019-05-22T09:00:00.154Z,16.25
2019-05-22T09:01:00.218Z,16.40
2019-05-22T09:02:00.277Z,16.26
2019-05-22T09:03:00.335Z,15.84
2019-05-22T09:04:00.401Z,15.86
2019-05-22T09:05:00.459Z,15.84
2019-05-22T09:06:01.208Z,15.85
2019-05-22T09:07:00.577Z,15.89
2019-05-22T09:08:00.637Z,15.98
2019-05-22T09:09:00.708Z,16.03
2019-05-22T09:10:00.760Z,16.27
2019-05-22T09:11:00.820Z,16.45
2019-05-22T09:12:00.888Z,16.42
2019-05-22T09:13:01.027Z,15.93
2019-05-22T09:14:01.006Z,15.48
2019-05-22T09:15:01.062Z,15.51
2019-05-22T09:16:02.043Z,15.49
2019-05-22T09:17:01.184Z,15.62
2019-05-22T09:18:01.247Z,15.93
2019-05-22T09:19:01.874Z,16.01
2019-05-22T09:20:01.368Z,16.10
2019-05-22T09:21:01.432Z,15.80
2019-05-22T09:22:01.492Z,15.93
2019-05-22T09:23:01.550Z,16.06
2019-05-22T09:24:01.611Z,16.08
2019-05-22T09:25:01.744Z,15.77
2019-05-22T09:26:01.731Z,15.55
2019-05-22T09:27:02.957Z,15.85
2019-05-22T09:28:01.853Z,15.85
2019-05-22T09:29:01.914Z,15.84
2019-05-22T09:30:01.997Z,16.08
2019-05-22T09:31:02.037Z,16.36
2019-05-22T09:32:02.102Z,16.25
2019-05-22T09:33:02.156Z,16.47
2019-05-22T09:34:02.252Z,16.57
2019-05-22T09:35:02.346Z,16.59
2019-05-22T09:36:02.399Z,16.59
2019-05-22T09:37:02.398Z,16.50
2019-05-22T09:38:02.460Z,16.63
2019-05-22T09:39:02.523Z,16.63
2019-05-22T09:40:02.590Z,16.63
2019-05-22T09:41:02.643Z,16.73
2019-05-22T09:42:02.703Z,16.98
2019-05-22T09:43:02.774Z,16.98
2019-05-22T09:44:02.824Z,17.15
2019-05-22T09:45:03.365Z,17.27
2019-05-22T09:46:03.431Z,17.40
2019-05-22T09:47:03.013Z,17.27
2019-05-22T09:48:03.069Z,17.24
2019-05-22T09:49:03.131Z,17.38
2019-05-22T09:50:03.191Z,17.54
2019-05-22T09:51:03.269Z,17.63
2019-05-22T09:52:03.316Z,17.51
2019-05-22T09:53:03.376Z,17.30
2019-05-22T09:54:03.435Z,17.51
2019-05-22T09:55:03.507Z,17.58
2019-05-22T09:56:03.558Z,17.54
2019-05-22T09:57:03.618Z,17.58
2019-05-22T09:58:03.690Z,17.60
2019-05-22T09:59:03.743Z,17.80
2019-05-22T10:00:03.808Z,17.98
2019-05-22T10:01:03.864Z,17.60
2019-05-22T10:02:03.925Z,17.38
2019-05-22T10:03:03.989Z,17.33
2019-05-22T10:04:05.405Z,17.39
2019-05-22T10:05:04.118Z,17.57
2019-05-22T10:06:04.231Z,17.87
2019-05-22T10:07:04.236Z,17.77
2019-05-22T10:08:04.298Z,18.13
2019-05-22T10:09:04.359Z,18.42
2019-05-22T10:10:04.423Z,18.49
2019-05-22T10:11:04.485Z,18.42
2019-05-22T10:12:04.549Z,18.74
2019-05-22T10:13:04.609Z,19.01
2019-05-22T10:14:04.672Z,18.78
2019-05-22T10:15:05.141Z,18.78
2019-05-22T10:16:04.801Z,19.01
2019-05-22T10:17:05.174Z,19.21
2019-05-22T10:18:05.620Z,19.25
2019-05-22T10:19:04.995Z,19.34
2019-05-22T10:20:05.062Z,19.40
2019-05-22T10:21:05.141Z,19.31
2019-05-22T10:22:05.983Z,19.65
2019-05-22T10:23:14.712Z,19.78
2019-05-22T10:24:05.322Z,19.89
2019-05-22T10:25:15.546Z,20.02
2019-05-22T10:26:05.453Z,20.27
2019-05-22T10:27:05.522Z,20.53
2019-05-22T10:28:05.592Z,20.48
2019-05-22T10:29:05.657Z,20.17
2019-05-22T10:30:05.722Z,19.97
2019-05-22T10:31:06.947Z,18.82
2019-05-22T10:32:05.856Z,19.20
2019-05-22T10:33:05.940Z,19.67
2019-05-22T10:34:05.991Z,19.32
2019-05-22T10:35:06.062Z,19.31
2019-05-22T10:36:06.188Z,19.39
2019-05-22T10:37:06.196Z,20.13
2019-05-22T10:38:06.266Z,20.87
2019-05-22T10:39:06.334Z,21.27
2019-05-22T10:40:06.400Z,21.77
2019-05-22T10:41:06.475Z,22.06
2019-05-22T10:42:06.537Z,22.60
2019-05-22T10:43:06.613Z,22.96
2019-05-22T10:44:06.674Z,23.12
2019-05-22T10:45:06.744Z,23.38
2019-05-22T10:46:06.819Z,22.33
2019-05-22T10:47:06.883Z,22.75
2019-05-22T10:48:06.954Z,22.96
2019-05-22T10:49:49.466Z,22.81
2019-05-22T10:50:49.539Z,22.59
2019-05-22T10:51:50.415Z,21.66
2019-05-22T10:52:54.039Z,21.67
2019-05-22T10:53:49.746Z,21.83
2019-05-22T10:54:49.812Z,21.33
2019-05-22T10:55:49.883Z,21.66
2019-05-22T10:56:49.953Z,22.45
2019-05-22T10:57:50.049Z,21.98
2019-05-22T10:58:50.093Z,21.73
2019-05-22T10:59:50.176Z,22.27
2019-05-22T11:00:50.232Z,22.01
2019-05-22T11:01:50.617Z,21.82
2019-05-22T11:02:50.400Z,21.96
2019-05-22T11:03:50.519Z,21.74
2019-05-22T11:04:50.511Z,21.52
2019-05-22T11:06:05.873Z,22.36
2019-05-22T11:06:50.650Z,23.31
2019-05-22T11:07:50.732Z,23.16
2019-05-22T11:08:50.790Z,23.09
2019-05-22T11:09:50.859Z,22.49
2019-05-22T11:10:50.943Z,22.51
2019-05-22T11:11:51.003Z,21.74
2019-05-22T11:12:51.068Z,21.63
2019-05-22T11:14:00.532Z,21.37
2019-05-22T11:14:51.207Z,20.88
2019-05-22T11:15:51.286Z,20.12
2019-05-22T11:16:51.347Z,20.27
2019-05-22T11:17:51.419Z,20.13
2019-05-22T11:18:51.485Z,20.04
2019-05-22T11:19:51.575Z,20.15
2019-05-22T11:20:51.748Z,19.52
2019-05-22T11:21:51.690Z,19.28
2019-05-22T11:22:51.762Z,19.97
2019-05-22T11:23:53.180Z,20.63
2019-05-22T11:24:51.895Z,21.30
2019-05-22T11:25:51.966Z,22.21
2019-05-22T11:26:52.027Z,22.97
2019-05-22T11:27:52.093Z,23.22
2019-05-22T11:28:52.162Z,22.12
2019-05-22T11:29:52.232Z,21.08
2019-05-22T11:30:52.296Z,20.30
2019-05-22T11:31:52.362Z,20.48
2019-05-22T11:32:52.436Z,20.90
2019-05-22T11:33:52.498Z,21.19
2019-05-22T11:34:52.565Z,21.08
2019-05-22T11:35:52.948Z,21.26
2019-05-22T11:36:52.706Z,21.74
2019-05-22T11:37:52.769Z,22.19
2019-05-22T11:38:52.841Z,22.06
2019-05-22T11:39:52.906Z,22.02
2019-05-22T11:40:52.974Z,21.98
2019-05-22T11:41:53.052Z,22.97
2019-05-22T11:42:53.127Z,23.50
2019-05-22T11:43:53.183Z,23.47
2019-05-22T11:44:53.250Z,23.62
2019-05-22T11:45:53.319Z,23.47
2019-05-22T11:46:53.386Z,23.53
2019-05-22T11:47:53.456Z,23.11
2019-05-22T11:48:53.531Z,23.67
2019-05-22T11:49:53.593Z,24.15
2019-05-22T11:50:53.671Z,23.89
2019-05-22T11:51:53.730Z,22.60
2019-05-22T11:52:53.802Z,23.31
2019-05-22T11:54:08.202Z,23.74
2019-05-22T11:54:53.937Z,24.63
2019-05-22T11:55:54.015Z,24.00
2019-05-22T11:56:54.076Z,23.62
2019-05-22T11:57:54.143Z,23.09
2019-05-22T11:58:54.211Z,24.09
2019-05-22T11:59:54.281Z,24.64
2019-05-22T12:00:54.358Z,24.80
2019-05-22T12:01:54.417Z,25.08
2019-05-22T12:02:54.492Z,25.67
2019-05-22T12:03:54.559Z,24.64
2019-05-22T12:04:54.626Z,23.97
2019-05-22T12:07:02.242Z,23.93
2019-05-22T12:08:02.287Z,24.08
2019-05-22T12:09:02.355Z,24.51
2019-05-22T12:10:02.425Z,23.99
2019-05-22T12:11:02.505Z,23.68
2019-05-22T12:12:02.563Z,24.29
2019-05-22T12:13:02.632Z,24.06
2019-05-22T12:14:02.717Z,24.11
2019-05-22T12:15:02.794Z,23.74
2019-05-22T12:16:02.838Z,23.89
2019-05-22T12:17:02.907Z,23.99
2019-05-22T12:18:02.977Z,23.81
2019-05-22T12:19:03.045Z,24.15
2019-05-22T12:20:03.126Z,24.14
2019-05-22T12:21:03.186Z,23.34
2019-05-22T12:22:03.254Z,24.23
2019-05-22T12:23:03.326Z,24.06
2019-05-22T12:24:03.391Z,24.84
2019-05-22T12:25:03.464Z,25.29
2019-05-22T12:26:03.531Z,25.59
2019-05-22T12:27:03.605Z,25.41
2019-05-22T12:28:03.677Z,25.39
2019-05-22T12:29:03.739Z,25.46
2019-05-22T12:30:03.815Z,25.81
2019-05-22T12:31:03.882Z,26.06
2019-05-22T12:32:03.947Z,25.56
2019-05-22T12:33:12.273Z,25.81
2019-05-22T12:34:04.089Z,25.69
2019-05-22T12:35:04.158Z,26.19
2019-05-22T12:36:04.228Z,25.81
2019-05-22T12:37:04.303Z,25.66
2019-05-22T12:38:04.370Z,26.16
2019-05-22T12:39:04.439Z,25.89
2019-05-22T12:40:04.512Z,25.14
2019-05-22T12:41:04.580Z,24.68
2019-05-22T12:42:04.651Z,25.11
2019-05-22T12:43:04.815Z,25.78
2019-05-22T12:44:05.599Z,25.78
2019-05-22T12:45:05.438Z,26.12
2019-05-22T12:46:04.945Z,26.19
2019-05-22T12:47:05.013Z,26.28
2019-05-22T12:48:05.080Z,25.96
2019-05-22T12:49:08.543Z,25.74
2019-05-22T12:50:05.243Z,25.81
2019-05-22T12:51:05.286Z,25.42
2019-05-22T12:52:05.360Z,25.64
2019-05-22T12:53:05.429Z,25.46
2019-05-22T12:54:05.498Z,25.56
2019-05-22T12:55:05.568Z,26.13